createdAt,value
2019-03-18T00:00:34.567Z,302.19
2019-03-18T00:01:34.645Z,302.19
2019-03-18T00:02:34.554Z,302.24
2019-03-18T00:03:34.555Z,302.15
2019-03-18T00:04:34.526Z,302.29
2019-03-18T00:05:34.516Z,302.33
2019-03-18T00:06:34.499Z,302.07
2019-03-18T00:07:34.535Z,302.11
2019-03-18T00:08:34.488Z,302.10
2019-03-18T00:09:34.495Z,301.95
2019-03-18T00:10:34.467Z,302.12
2019-03-18T00:11:34.457Z,302.12
2019-03-18T00:12:34.492Z,302.24
2019-03-18T00:13:34.420Z,302.19
2019-03-18T00:14:34.472Z,302.32
2019-03-18T00:15:34.412Z,302.24
2019-03-18T00:16:34.424Z,302.30
2019-03-18T00:17:34.404Z,302.17
2019-03-18T00:18:34.405Z,302.14
2019-03-18T00:19:34.398Z,302.04
2019-03-18T00:20:34.375Z,302.30
2019-03-18T00:21:34.367Z,302.18
2019-03-18T00:22:34.365Z,302.08
2019-03-18T00:23:34.329Z,302.07
2019-03-18T00:24:34.327Z,302.18
2019-03-18T00:25:34.309Z,302.06
2019-03-18T00:26:34.313Z,302.18
2019-03-18T00:27:34.313Z,302.27
2019-03-18T00:28:34.288Z,302.19
2019-03-18T00:29:34.292Z,302.17
2019-03-18T00:30:34.319Z,302.16
2019-03-18T00:31:34.270Z,302.13
2019-03-18T00:32:34.252Z,302.12
2019-03-18T00:33:34.225Z,302.11
2019-03-18T00:34:34.220Z,302.20
2019-03-18T00:35:34.201Z,302.22
2019-03-18T00:36:34.230Z,302.01
2019-03-18T00:37:34.187Z,302.08
2019-03-18T00:38:34.182Z,302.26
2019-03-18T00:39:34.185Z,302.33
2019-03-18T00:40:34.144Z,302.08
2019-03-18T00:41:34.161Z,301.98
2019-03-18T00:42:34.177Z,302.20
2019-03-18T00:43:34.136Z,302.10
2019-03-18T00:44:34.121Z,301.99
2019-03-18T00:45:34.123Z,302.08
2019-03-18T00:46:34.090Z,302.05
2019-03-18T00:47:34.110Z,302.03
2019-03-18T00:48:34.115Z,302.34
2019-03-18T00:49:34.114Z,302.12
2019-03-18T00:50:34.067Z,302.10
2019-03-18T00:51:34.056Z,302.17
2019-03-18T00:52:34.071Z,302.24
2019-03-18T00:53:34.027Z,302.01
2019-03-18T00:54:34.034Z,302.13
2019-03-18T00:55:34.026Z,302.07
2019-03-18T00:56:34.006Z,302.00
2019-03-18T00:57:34.006Z,302.28
2019-03-18T00:58:33.972Z,302.12
2019-03-18T00:59:33.998Z,302.02
2019-03-18T01:00:33.946Z,302.02
2019-03-18T01:01:33.954Z,302.19
2019-03-18T01:02:33.946Z,301.83
2019-03-18T01:03:33.915Z,302.17
2019-03-18T01:04:33.913Z,302.19
2019-03-18T01:05:33.943Z,301.92
2019-03-18T01:06:33.973Z,301.92
2019-03-18T01:07:34.016Z,301.93
2019-03-18T01:08:33.868Z,301.93
2019-03-18T01:09:33.881Z,301.75
2019-03-18T01:10:33.881Z,302.08
2019-03-18T01:11:33.896Z,301.96
2019-03-18T01:12:33.879Z,301.98
2019-03-18T01:13:33.819Z,302.07
2019-03-18T01:14:33.872Z,301.88
2019-03-18T01:15:33.826Z,301.92
2019-03-18T01:16:33.811Z,302.05
2019-03-18T01:17:33.792Z,301.77
2019-03-18T01:18:33.765Z,301.96
2019-03-18T01:19:33.753Z,302.05
2019-03-18T01:20:33.752Z,302.10
2019-03-18T01:21:33.741Z,302.09
2019-03-18T01:22:33.737Z,302.06
2019-03-18T01:23:33.721Z,302.18
2019-03-18T01:24:33.716Z,301.99
2019-03-18T01:25:33.716Z,301.95
2019-03-18T01:26:33.690Z,301.96
2019-03-18T01:27:33.701Z,301.96
2019-03-18T01:28:33.668Z,302.08
2019-03-18T01:29:33.684Z,302.15
2019-03-18T01:30:33.645Z,302.25
2019-03-18T01:31:33.633Z,302.06
2019-03-18T01:32:33.642Z,301.90
2019-03-18T01:33:33.633Z,302.04
2019-03-18T01:34:33.597Z,301.89
2019-03-18T01:35:33.620Z,302.07
2019-03-18T01:36:33.572Z,301.97
2019-03-18T01:37:33.584Z,302.19
2019-03-18T01:38:33.592Z,301.96
2019-03-18T01:39:33.559Z,302.02
2019-03-18T01:40:33.536Z,302.14
2019-03-18T01:41:33.536Z,302.01
2019-03-18T01:42:33.521Z,302.01
2019-03-18T01:43:33.539Z,302.08
2019-03-18T01:44:33.488Z,301.99
2019-03-18T01:45:40.531Z,302.12
2019-03-18T01:46:34.488Z,302.20
2019-03-18T01:47:33.473Z,302.02
2019-03-18T01:48:33.504Z,302.10
2019-03-18T01:49:33.435Z,302.10
2019-03-18T01:50:33.429Z,301.80
2019-03-18T01:51:33.425Z,302.00
2019-03-18T01:52:33.419Z,301.98
2019-03-18T01:53:33.421Z,302.04
2019-03-18T01:54:33.422Z,302.15
2019-03-18T01:55:33.372Z,302.02
2019-03-18T01:56:33.380Z,302.15
2019-03-18T01:57:33.362Z,302.11
2019-03-18T01:58:33.380Z,302.02
2019-03-18T01:59:33.331Z,301.94
2019-03-18T02:00:33.343Z,301.98
2019-03-18T02:01:33.318Z,302.15
2019-03-18T02:02:33.310Z,302.12
2019-03-18T02:03:33.288Z,302.02
2019-03-18T02:04:33.304Z,302.08
2019-03-18T02:05:33.299Z,302.11
2019-03-18T02:06:33.279Z,301.88
2019-03-18T02:07:33.265Z,302.10
2019-03-18T02:08:33.251Z,301.97
2019-03-18T02:09:33.234Z,302.14
2019-03-18T02:10:33.235Z,302.07
2019-03-18T02:11:33.292Z,302.05
2019-03-18T02:12:33.202Z,301.88
2019-03-18T02:13:33.191Z,302.02
2019-03-18T02:14:33.186Z,302.07
2019-03-18T02:15:33.321Z,302.06
2019-03-18T02:16:33.169Z,301.99
2019-03-18T02:17:33.175Z,302.14
2019-03-18T02:18:33.145Z,301.90
2019-03-18T02:19:33.116Z,301.97
2019-03-18T02:20:33.129Z,302.14
2019-03-18T02:21:33.121Z,302.04
2019-03-18T02:22:33.115Z,302.10
2019-03-18T02:23:33.094Z,301.86
2019-03-18T02:24:33.088Z,302.10
2019-03-18T02:25:33.067Z,301.98
2019-03-18T02:26:33.059Z,302.07
2019-03-18T02:27:33.112Z,302.02
2019-03-18T02:28:33.188Z,302.03
2019-03-18T02:29:33.021Z,302.15
2019-03-18T02:30:33.006Z,302.07
2019-03-18T02:31:33.020Z,301.99
2019-03-18T02:32:32.999Z,302.14
2019-03-18T02:33:32.992Z,302.06
2019-03-18T02:34:33.009Z,302.01
2019-03-18T02:35:33.012Z,301.97
2019-03-18T02:36:32.969Z,302.07
2019-03-18T02:37:32.999Z,302.02
2019-03-18T02:38:32.932Z,302.05
2019-03-18T02:39:32.982Z,302.03
2019-03-18T02:40:32.922Z,302.07
2019-03-18T02:41:32.972Z,302.03
2019-03-18T02:42:32.915Z,302.00
2019-03-18T02:43:32.878Z,302.00
2019-03-18T02:44:32.869Z,301.98
2019-03-18T02:45:32.883Z,301.93
2019-03-18T02:46:32.839Z,302.06
2019-03-18T02:47:32.871Z,302.08
2019-03-18T02:48:32.808Z,302.19
2019-03-18T02:49:32.805Z,302.12
2019-03-18T02:50:32.799Z,302.08
2019-03-18T02:51:32.783Z,301.96
2019-03-18T02:52:32.800Z,302.05
2019-03-18T02:53:32.760Z,302.30
2019-03-18T02:54:32.744Z,302.15
2019-03-18T02:55:32.743Z,301.98
2019-03-18T02:56:32.736Z,302.10
2019-03-18T02:57:32.779Z,301.97
2019-03-18T02:58:32.704Z,302.07
2019-03-18T02:59:32.724Z,302.03
2019-03-18T03:00:32.700Z,302.18
2019-03-18T03:01:32.680Z,302.17
2019-03-18T03:02:32.677Z,301.98
2019-03-18T03:03:32.667Z,302.04
2019-03-18T03:04:32.659Z,302.17
2019-03-18T03:05:32.654Z,302.12
2019-03-18T03:06:32.627Z,302.18
2019-03-18T03:07:32.659Z,302.03
2019-03-18T03:08:32.608Z,301.96
2019-03-18T03:09:32.604Z,302.06
2019-03-18T03:10:32.600Z,302.10
2019-03-18T03:11:34.379Z,302.08
2019-03-18T03:12:32.602Z,302.12
2019-03-18T03:13:32.559Z,302.09
2019-03-18T03:14:32.593Z,302.16
2019-03-18T03:15:32.552Z,302.09
2019-03-18T03:16:32.576Z,302.10
2019-03-18T03:17:32.538Z,302.19
2019-03-18T03:18:32.524Z,301.97
2019-03-18T03:19:32.514Z,301.88
2019-03-18T03:20:32.491Z,302.01
2019-03-18T03:21:32.482Z,302.12
2019-03-18T03:22:32.477Z,301.98
2019-03-18T03:23:32.450Z,302.05
2019-03-18T03:24:32.453Z,302.20
2019-03-18T03:25:32.434Z,302.29
2019-03-18T03:26:32.420Z,302.19
2019-03-18T03:27:32.403Z,302.08
2019-03-18T03:28:32.412Z,302.25
2019-03-18T03:29:32.386Z,302.22
2019-03-18T03:30:32.373Z,302.12
2019-03-18T03:31:32.365Z,301.89
2019-03-18T03:32:32.349Z,302.08
2019-03-18T03:33:32.421Z,302.06
2019-03-18T03:34:32.403Z,302.11
2019-03-18T03:35:32.321Z,302.28
2019-03-18T03:36:32.326Z,302.16
2019-03-18T03:37:32.305Z,302.11
2019-03-18T03:38:32.289Z,302.02
2019-03-18T03:39:32.322Z,302.09
2019-03-18T03:40:32.259Z,302.02
2019-03-18T03:41:32.265Z,302.10
2019-03-18T03:42:32.244Z,302.06
2019-03-18T03:43:32.260Z,302.15
2019-03-18T03:44:32.289Z,302.15
2019-03-18T03:45:32.208Z,302.07
2019-03-18T03:46:43.133Z,302.08
2019-03-18T03:47:33.194Z,302.10
2019-03-18T03:48:32.187Z,302.07
2019-03-18T03:49:32.198Z,302.04
2019-03-18T03:50:32.210Z,302.10
2019-03-18T03:51:32.166Z,302.05
2019-03-18T03:52:32.205Z,302.04
2019-03-18T03:53:32.169Z,302.14
2019-03-18T03:54:32.111Z,302.10
2019-03-18T03:55:32.132Z,302.13
2019-03-18T03:56:32.094Z,302.05
2019-03-18T03:57:32.091Z,302.03
2019-03-18T03:58:32.082Z,302.23
2019-03-18T03:59:32.079Z,302.17
2019-03-18T04:00:32.089Z,301.97
2019-03-18T04:01:32.076Z,302.02
2019-03-18T04:02:32.082Z,301.96
2019-03-18T04:03:38.344Z,302.10
2019-03-18T04:04:33.041Z,301.84
2019-03-18T04:05:32.011Z,302.11
2019-03-18T04:06:32.043Z,302.09
2019-03-18T04:07:31.994Z,302.10
2019-03-18T04:08:32.085Z,301.89
2019-03-18T04:09:31.973Z,302.08
2019-03-18T04:10:31.951Z,302.14
2019-03-18T04:11:31.953Z,302.04
2019-03-18T04:12:31.923Z,302.07
2019-03-18T04:13:31.916Z,302.17
2019-03-18T04:14:31.891Z,301.84
2019-03-18T04:15:31.897Z,302.11
2019-03-18T04:16:31.908Z,302.19
2019-03-18T04:17:31.890Z,302.16
2019-03-18T04:18:31.876Z,302.30
2019-03-18T04:19:31.872Z,302.01
2019-03-18T04:20:31.830Z,302.36
2019-03-18T04:21:31.831Z,302.07
2019-03-18T04:22:31.836Z,302.05
2019-03-18T04:23:31.818Z,302.25
2019-03-18T04:24:31.822Z,301.98
2019-03-18T04:25:31.791Z,302.29
2019-03-18T04:26:31.804Z,302.24
2019-03-18T04:27:31.788Z,302.14
2019-03-18T04:28:31.764Z,302.24
2019-03-18T04:29:31.766Z,302.20
2019-03-18T04:30:31.745Z,302.13
2019-03-18T04:31:31.731Z,302.17
2019-03-18T04:32:31.715Z,302.33
2019-03-18T04:33:31.746Z,302.30
2019-03-18T04:34:31.702Z,302.34
2019-03-18T04:35:31.688Z,302.33
2019-03-18T04:36:31.750Z,302.26
2019-03-18T04:37:31.692Z,302.09
2019-03-18T04:38:31.702Z,302.30
2019-03-18T04:39:31.671Z,302.38
2019-03-18T04:40:31.645Z,302.39
2019-03-18T04:41:31.608Z,302.27
2019-03-18T04:42:31.603Z,302.26
2019-03-18T04:43:31.630Z,302.34
2019-03-18T04:44:31.612Z,302.37
2019-03-18T04:45:31.584Z,302.30
2019-03-18T04:46:31.575Z,302.15
2019-03-18T04:47:31.564Z,302.35
2019-03-18T04:48:31.627Z,302.45
2019-03-18T04:49:31.559Z,302.45
2019-03-18T04:50:31.532Z,302.44
2019-03-18T04:51:31.531Z,302.36
2019-03-18T04:52:31.509Z,302.28
2019-03-18T04:53:31.529Z,302.32
2019-03-18T04:54:31.485Z,302.45
2019-03-18T04:55:31.491Z,302.42
2019-03-18T04:56:31.461Z,302.37
2019-03-18T04:57:31.464Z,302.54
2019-03-18T04:58:31.446Z,302.31
2019-03-18T04:59:31.518Z,302.47
2019-03-18T05:00:31.445Z,302.40
2019-03-18T05:01:31.463Z,302.25
2019-03-18T05:02:31.412Z,302.46
2019-03-18T05:03:31.386Z,302.24
2019-03-18T05:04:31.418Z,302.35
2019-03-18T05:05:31.371Z,302.19
2019-03-18T05:06:31.353Z,302.28
2019-03-18T05:07:31.354Z,302.42
2019-03-18T05:08:31.347Z,302.35
2019-03-18T05:09:31.315Z,302.36
2019-03-18T05:10:31.334Z,302.30
2019-03-18T05:11:31.296Z,302.50
2019-03-18T05:12:31.321Z,302.40
2019-03-18T05:13:31.279Z,302.38
2019-03-18T05:14:31.261Z,302.42
2019-03-18T05:15:31.263Z,302.35
2019-03-18T05:16:31.302Z,302.37
2019-03-18T05:17:31.235Z,302.22
2019-03-18T05:18:31.221Z,302.30
2019-03-18T05:19:31.282Z,302.38
2019-03-18T05:20:32.733Z,302.22
2019-03-18T05:21:33.746Z,302.38
2019-03-18T05:22:31.190Z,302.26
2019-03-18T05:23:31.178Z,302.53
2019-03-18T05:24:31.196Z,302.39
2019-03-18T05:25:31.268Z,302.13
2019-03-18T05:26:31.139Z,302.20
2019-03-18T05:27:35.875Z,302.16
2019-03-18T05:28:32.644Z,302.32
2019-03-18T05:29:35.584Z,302.49
2019-03-18T05:30:34.877Z,302.10
2019-03-18T05:31:31.101Z,302.20
2019-03-18T05:32:31.310Z,302.18
2019-03-18T05:33:31.582Z,302.26
2019-03-18T05:34:33.585Z,302.21
2019-03-18T05:35:34.620Z,302.27
2019-03-18T05:36:32.137Z,302.32
2019-03-18T05:37:34.335Z,302.35
2019-03-18T05:38:31.485Z,302.15
2019-03-18T05:39:31.015Z,302.28
2019-03-18T05:40:31.001Z,302.20
2019-03-18T05:41:31.020Z,302.32
2019-03-18T05:42:32.086Z,302.22
2019-03-18T05:43:32.027Z,302.18
2019-03-18T05:44:35.729Z,302.31
2019-03-18T05:45:31.499Z,302.25
2019-03-18T05:46:32.191Z,302.05
2019-03-18T05:47:39.138Z,302.26
2019-03-18T05:48:37.442Z,302.33
2019-03-18T05:49:32.464Z,302.24
2019-03-18T05:50:31.226Z,302.28
2019-03-18T05:51:35.592Z,301.97
2019-03-18T05:52:32.502Z,302.32
2019-03-18T05:53:31.720Z,302.19
2019-03-18T05:54:30.875Z,302.16
2019-03-18T05:55:30.859Z,302.33
2019-03-18T05:56:30.839Z,302.29
2019-03-18T05:57:30.856Z,302.28
2019-03-18T05:58:30.793Z,302.41
2019-03-18T05:59:30.812Z,302.21
2019-03-18T06:00:30.792Z,302.27
2019-03-18T06:01:30.767Z,302.12
2019-03-18T06:02:30.782Z,302.11
2019-03-18T06:03:30.763Z,302.17
2019-03-18T06:04:30.726Z,302.43
2019-03-18T06:05:30.757Z,302.25
2019-03-18T06:06:30.792Z,302.20
2019-03-18T06:07:30.737Z,302.28
2019-03-18T06:08:30.735Z,302.40
2019-03-18T06:09:30.695Z,302.14
2019-03-18T06:10:30.746Z,302.26
2019-03-18T06:11:30.664Z,302.24
2019-03-18T06:12:30.695Z,302.36
2019-03-18T06:13:30.666Z,302.42
2019-03-18T06:14:30.707Z,302.46
2019-03-18T06:15:30.682Z,302.22
2019-03-18T06:16:30.612Z,302.36
2019-03-18T06:17:30.622Z,302.26
2019-03-18T06:18:30.635Z,302.30
2019-03-18T06:19:30.591Z,302.38
2019-03-18T06:20:30.599Z,301.96
2019-03-18T06:21:30.609Z,302.36
2019-03-18T06:22:30.592Z,302.33
2019-03-18T06:23:30.547Z,302.10
2019-03-18T06:24:30.561Z,302.26
2019-03-18T06:25:30.603Z,302.17
2019-03-18T06:26:30.533Z,302.33
2019-03-18T06:27:30.505Z,302.55
2019-03-18T06:28:30.483Z,302.32
2019-03-18T06:29:30.540Z,302.42
2019-03-18T06:30:30.482Z,302.36
2019-03-18T06:31:30.552Z,302.40
2019-03-18T06:32:30.441Z,302.50
2019-03-18T06:33:30.437Z,302.52
2019-03-18T06:34:30.462Z,302.20
2019-03-18T06:35:30.462Z,302.36
2019-03-18T06:36:30.419Z,302.55
2019-03-18T06:37:30.410Z,302.23
2019-03-18T06:38:30.404Z,302.21
2019-03-18T06:39:30.429Z,302.35
2019-03-18T06:40:30.402Z,302.41
2019-03-18T06:41:30.453Z,302.44
2019-03-18T06:42:30.369Z,302.22
2019-03-18T06:43:30.468Z,302.39
2019-03-18T06:44:30.381Z,302.49
2019-03-18T06:45:30.379Z,302.32
2019-03-18T06:46:30.326Z,302.19
2019-03-18T06:47:30.298Z,302.47
2019-03-18T06:48:30.292Z,302.48
2019-03-18T06:49:39.710Z,302.56
2019-03-18T06:50:39.249Z,302.16
2019-03-18T06:51:30.235Z,302.20
2019-03-18T06:52:30.224Z,302.35
2019-03-18T06:53:30.270Z,302.24
2019-03-18T06:54:30.212Z,302.17
2019-03-18T06:55:30.229Z,302.10
2019-03-18T06:56:30.196Z,302.24
2019-03-18T06:57:30.177Z,302.26
2019-03-18T06:58:30.217Z,302.35
2019-03-18T06:59:30.168Z,302.28
2019-03-18T07:00:30.136Z,302.45
2019-03-18T07:01:39.303Z,302.38
2019-03-18T07:02:30.115Z,302.38
2019-03-18T07:03:39.344Z,302.39
2019-03-18T07:04:39.328Z,302.29
2019-03-18T07:05:30.096Z,302.30
2019-03-18T07:06:31.274Z,302.27
2019-03-18T07:07:40.365Z,302.42
2019-03-18T07:08:30.075Z,302.36
2019-03-18T07:09:30.087Z,302.26
2019-03-18T07:10:30.043Z,302.23
2019-03-18T07:11:30.054Z,302.44
2019-03-18T07:12:30.035Z,302.57
2019-03-18T07:13:30.040Z,302.12
2019-03-18T07:14:30.023Z,302.20
2019-03-18T07:15:29.994Z,302.06
2019-03-18T07:16:30.030Z,302.02
2019-03-18T07:17:29.998Z,302.29
2019-03-18T07:18:29.976Z,302.10
2019-03-18T07:19:29.961Z,302.17
2019-03-18T07:20:39.402Z,302.42
2019-03-18T07:21:29.918Z,302.32
2019-03-18T07:22:29.946Z,302.03
2019-03-18T07:23:29.901Z,302.31
2019-03-18T07:24:29.897Z,301.93
2019-03-18T07:25:29.870Z,302.18
2019-03-18T07:26:29.870Z,302.25
2019-03-18T07:27:29.884Z,302.27
2019-03-18T07:28:29.898Z,302.21
2019-03-18T07:29:29.840Z,302.49
2019-03-18T07:30:29.865Z,302.27
2019-03-18T07:31:29.849Z,302.08
2019-03-18T07:32:40.682Z,302.19
2019-03-18T07:33:44.711Z,302.22
2019-03-18T07:34:43.534Z,302.39
2019-03-18T07:35:42.536Z,302.11
2019-03-18T07:36:40.570Z,302.15
2019-03-18T07:37:30.924Z,302.03
2019-03-18T07:38:29.780Z,302.08
2019-03-18T07:39:29.748Z,302.28
2019-03-18T07:40:29.730Z,302.04
2019-03-18T07:41:29.778Z,302.07
2019-03-18T07:42:29.701Z,302.09
2019-03-18T07:43:29.980Z,302.23
2019-03-18T07:44:29.747Z,302.19
2019-03-18T07:45:29.698Z,302.20
2019-03-18T07:46:29.763Z,302.05
2019-03-18T07:47:29.687Z,302.00
2019-03-18T07:48:31.342Z,301.93
2019-03-18T07:49:29.733Z,302.03
2019-03-18T07:50:29.772Z,302.15
2019-03-18T07:51:29.805Z,302.05
2019-03-18T07:52:29.881Z,302.06
2019-03-18T07:53:29.583Z,301.84
2019-03-18T07:54:32.949Z,302.09
2019-03-18T07:55:29.645Z,302.10
2019-03-18T07:56:29.630Z,302.14
2019-03-18T07:57:32.529Z,302.23
2019-03-18T07:58:29.686Z,302.03
2019-03-18T07:59:29.590Z,302.08
2019-03-18T08:00:29.585Z,302.16
2019-03-18T08:01:29.638Z,302.08
2019-03-18T08:02:29.608Z,302.06
2019-03-18T08:03:29.652Z,301.99
2019-03-18T08:04:37.278Z,301.70
2019-03-18T08:05:31.338Z,301.81
2019-03-18T08:06:30.524Z,301.98
2019-03-18T08:07:31.312Z,301.88
2019-03-18T08:08:31.378Z,302.20
2019-03-18T08:09:30.893Z,302.25
2019-03-18T08:10:32.010Z,302.31
2019-03-18T08:11:29.495Z,302.32
2019-03-18T08:12:31.338Z,302.55
2019-03-18T08:13:31.869Z,302.28
2019-03-18T08:14:30.844Z,302.60
2019-03-18T08:15:29.420Z,302.58
2019-03-18T08:16:29.707Z,302.35
2019-03-18T08:17:30.842Z,302.57
2019-03-18T08:18:34.160Z,302.71
2019-03-18T08:19:31.383Z,302.53
2019-03-18T08:20:31.862Z,302.49
2019-03-18T08:21:29.350Z,302.48
2019-03-18T08:22:29.334Z,302.53
2019-03-18T08:23:29.370Z,302.53
2019-03-18T08:24:29.312Z,302.61
2019-03-18T08:25:30.027Z,302.62
2019-03-18T08:26:29.454Z,302.62
2019-03-18T08:27:29.968Z,302.67
2019-03-18T08:28:29.454Z,302.57
2019-03-18T08:29:29.839Z,302.58
2019-03-18T08:30:29.261Z,302.59
2019-03-18T08:31:29.317Z,302.58
2019-03-18T08:32:29.314Z,302.72
2019-03-18T08:33:29.329Z,302.80
2019-03-18T08:34:29.283Z,302.62
2019-03-18T08:35:29.842Z,302.61
2019-03-18T08:36:30.058Z,302.79
2019-03-18T08:37:29.188Z,302.34
2019-03-18T08:38:29.208Z,302.49
2019-03-18T08:39:29.982Z,302.40
2019-03-18T08:40:29.226Z,302.73
2019-03-18T08:41:29.227Z,302.65
2019-03-18T08:42:29.120Z,302.22
2019-03-18T08:43:29.088Z,302.51
2019-03-18T08:44:29.102Z,302.42
2019-03-18T08:45:29.159Z,302.13
2019-03-18T08:46:29.921Z,302.20
2019-03-18T08:47:29.071Z,302.11
2019-03-18T08:48:29.140Z,302.02
2019-03-18T08:49:29.016Z,301.87
2019-03-18T08:50:29.212Z,301.83
2019-03-18T08:51:29.141Z,301.86
2019-03-18T08:52:29.844Z,301.61
2019-03-18T08:53:28.972Z,301.76
2019-03-18T08:54:28.946Z,301.62
2019-03-18T08:55:29.049Z,301.75
2019-03-18T08:56:29.792Z,301.70
2019-03-18T08:57:28.923Z,301.53
2019-03-18T08:58:29.075Z,301.73
2019-03-18T08:59:28.957Z,301.53
2019-03-18T09:00:28.886Z,301.43
2019-03-18T09:01:29.134Z,301.69
2019-03-18T09:02:28.925Z,301.74
2019-03-18T09:03:28.975Z,301.42
2019-03-18T09:04:28.969Z,301.59
2019-03-18T09:05:28.878Z,301.58
2019-03-18T09:06:30.327Z,301.51
2019-03-18T09:07:28.896Z,301.56
2019-03-18T09:08:29.256Z,301.86
2019-03-18T09:09:28.996Z,301.82
2019-03-18T09:10:28.898Z,301.62
2019-03-18T09:11:28.815Z,301.72
2019-03-18T09:12:28.866Z,301.77
2019-03-18T09:13:28.823Z,301.70
2019-03-18T09:14:28.839Z,301.80
2019-03-18T09:15:28.736Z,302.02
2019-03-18T09:16:29.455Z,301.61
2019-03-18T09:17:29.429Z,301.98
2019-03-18T09:18:28.969Z,301.96
2019-03-18T09:19:28.913Z,302.25
2019-03-18T09:20:28.856Z,302.07
2019-03-18T09:21:28.932Z,302.27
2019-03-18T09:22:29.860Z,302.16
2019-03-18T09:23:28.796Z,302.18
2019-03-18T09:24:29.638Z,302.59
2019-03-18T09:25:28.893Z,302.44
2019-03-18T09:26:28.619Z,302.42
2019-03-18T09:27:28.699Z,302.79
2019-03-18T09:28:28.664Z,302.66
2019-03-18T09:29:28.980Z,302.79
2019-03-18T09:30:29.871Z,302.83
2019-03-18T09:31:28.795Z,302.71
2019-03-18T09:32:28.637Z,302.63
2019-03-18T09:33:28.772Z,302.59
2019-03-18T09:34:30.353Z,302.44
2019-03-18T09:35:29.441Z,302.57
2019-03-18T09:36:28.638Z,302.31
2019-03-18T09:37:28.543Z,302.48
2019-03-18T09:38:28.480Z,302.60
2019-03-18T09:39:28.487Z,302.24
2019-03-18T09:40:29.437Z,302.20
2019-03-18T09:41:29.354Z,302.08
2019-03-18T09:42:29.355Z,301.99
2019-03-18T09:43:28.507Z,301.86
2019-03-18T09:44:28.702Z,301.67
2019-03-18T09:45:34.813Z,302.08
2019-03-18T09:46:29.044Z,301.96
2019-03-18T09:47:32.785Z,301.97
2019-03-18T09:48:35.706Z,301.83
2019-03-18T09:49:29.354Z,301.66
2019-03-18T09:50:28.413Z,301.67
2019-03-18T09:51:28.406Z,301.93
2019-03-18T09:52:28.677Z,301.74
2019-03-18T09:53:28.347Z,301.89
2019-03-18T09:54:28.320Z,301.82
2019-03-18T09:55:28.325Z,301.75
2019-03-18T09:56:28.429Z,301.82
2019-03-18T09:57:39.478Z,301.74
2019-03-18T09:58:30.447Z,301.78
2019-03-18T09:59:33.285Z,301.71
2019-03-18T10:00:28.231Z,301.66
2019-03-18T10:01:28.219Z,301.89
2019-03-18T10:02:28.238Z,301.84
2019-03-18T10:03:29.051Z,302.08
2019-03-18T10:04:28.218Z,302.04
2019-03-18T10:05:39.091Z,301.77
2019-03-18T10:06:28.189Z,302.12
2019-03-18T10:07:28.176Z,302.08
2019-03-18T10:08:28.162Z,301.81
2019-03-18T10:09:28.204Z,302.07
2019-03-18T10:10:28.188Z,301.81
2019-03-18T10:11:28.122Z,302.13
2019-03-18T10:12:28.225Z,302.05
2019-03-18T10:13:28.155Z,302.00
2019-03-18T10:14:28.131Z,301.88
2019-03-18T10:15:28.866Z,302.00
2019-03-18T10:16:28.210Z,302.15
2019-03-18T10:17:28.291Z,302.09
2019-03-18T10:18:28.056Z,302.01
2019-03-18T10:19:33.567Z,302.15
2019-03-18T10:20:29.163Z,302.10
2019-03-18T10:21:28.867Z,301.84
2019-03-18T10:22:29.374Z,301.93
2019-03-18T10:23:38.473Z,301.79
2019-03-18T10:24:29.033Z,301.72
2019-03-18T10:25:27.969Z,301.65
2019-03-18T10:26:27.994Z,301.85
2019-03-18T10:27:28.090Z,301.65
2019-03-18T10:28:27.951Z,301.96
2019-03-18T10:29:27.936Z,301.58
2019-03-18T10:30:27.929Z,301.74
2019-03-18T10:31:28.955Z,301.96
2019-03-18T10:32:27.901Z,301.92
2019-03-18T10:33:27.986Z,301.91
2019-03-18T10:34:27.942Z,301.92
2019-03-18T10:35:27.889Z,302.08
2019-03-18T10:36:28.878Z,302.21
2019-03-18T10:37:27.890Z,302.20
2019-03-18T10:38:28.866Z,302.22
2019-03-18T10:39:27.830Z,302.27
2019-03-18T10:40:27.875Z,302.31
2019-03-18T10:41:27.799Z,302.51
2019-03-18T10:42:27.789Z,302.65
2019-03-18T10:43:27.779Z,302.56
2019-03-18T10:44:27.780Z,302.51
2019-03-18T10:45:27.777Z,302.56
2019-03-18T10:46:27.777Z,302.28
2019-03-18T10:47:27.747Z,302.49
2019-03-18T10:48:27.755Z,302.52
2019-03-18T10:49:27.739Z,302.21
2019-03-18T10:50:27.734Z,302.32
2019-03-18T10:51:27.740Z,302.23
2019-03-18T10:52:28.015Z,302.27
2019-03-18T10:53:27.683Z,302.41
2019-03-18T10:54:31.148Z,302.05
2019-03-18T10:55:27.663Z,301.90
2019-03-18T10:56:27.696Z,301.96
2019-03-18T10:57:27.649Z,302.14
2019-03-18T10:58:27.621Z,302.06
2019-03-18T10:59:27.616Z,301.87
2019-03-18T11:00:27.603Z,301.83
2019-03-18T11:01:27.599Z,301.97
2019-03-18T11:02:27.630Z,301.86
2019-03-18T11:03:27.614Z,301.88
2019-03-18T11:04:27.555Z,301.76
2019-03-18T11:05:27.539Z,301.88
2019-03-18T11:06:27.522Z,301.91
2019-03-18T11:07:27.575Z,301.94
2019-03-18T11:08:27.556Z,301.88
2019-03-18T11:09:27.508Z,301.86
2019-03-18T11:10:27.499Z,302.06
2019-03-18T11:11:28.442Z,302.13
2019-03-18T11:12:27.469Z,302.09
2019-03-18T11:13:27.484Z,302.02
2019-03-18T11:14:27.476Z,301.89
2019-03-18T11:15:27.493Z,301.78
2019-03-18T11:16:27.429Z,301.48
2019-03-18T11:17:27.440Z,301.54
2019-03-18T11:18:27.452Z,301.46
2019-03-18T11:19:27.489Z,301.73
2019-03-18T11:20:27.413Z,301.75
2019-03-18T11:21:27.397Z,301.75
2019-03-18T11:22:27.350Z,301.87
2019-03-18T11:23:27.350Z,301.94
2019-03-18T11:24:27.353Z,301.92
2019-03-18T11:25:27.331Z,302.18
2019-03-18T11:26:27.333Z,301.92
2019-03-18T11:27:27.338Z,302.20
2019-03-18T11:28:27.323Z,302.30
2019-03-18T11:29:27.309Z,302.31
2019-03-18T11:30:27.417Z,302.29
2019-03-18T11:31:27.309Z,302.30
2019-03-18T11:32:27.286Z,302.18
2019-03-18T11:33:28.506Z,302.25
2019-03-18T11:34:27.283Z,302.27
2019-03-18T11:35:27.377Z,302.09
2019-03-18T11:36:27.245Z,302.11
2019-03-18T11:37:27.208Z,302.17
2019-03-18T11:38:27.309Z,302.17
2019-03-18T11:39:27.287Z,302.27
2019-03-18T11:40:27.301Z,302.09
2019-03-18T11:41:27.199Z,301.99
2019-03-18T11:42:27.919Z,302.19
2019-03-18T11:43:27.138Z,301.97
2019-03-18T11:44:27.141Z,301.94
2019-03-18T11:45:27.154Z,301.99
2019-03-18T11:46:27.131Z,301.95
2019-03-18T11:47:27.091Z,301.66
2019-03-18T11:48:27.962Z,301.82
2019-03-18T11:49:39.010Z,301.77
2019-03-18T11:50:28.105Z,301.70
2019-03-18T11:51:27.079Z,301.77
2019-03-18T11:52:27.063Z,301.80
2019-03-18T11:53:27.435Z,301.88
2019-03-18T11:54:27.146Z,301.88
2019-03-18T11:55:27.047Z,301.80
2019-03-18T11:56:27.004Z,301.76
2019-03-18T11:57:27.020Z,301.92
2019-03-18T11:58:26.992Z,302.03
2019-03-18T11:59:26.966Z,302.28
2019-03-18T12:00:27.039Z,302.24
2019-03-18T12:01:26.954Z,302.36
2019-03-18T12:02:28.006Z,302.27
2019-03-18T12:03:26.939Z,302.38
2019-03-18T12:04:26.906Z,302.88
2019-03-18T12:05:26.923Z,302.56
2019-03-18T12:06:26.990Z,302.61
2019-03-18T12:07:26.898Z,302.53
2019-03-18T12:08:26.875Z,302.49
2019-03-18T12:09:26.866Z,302.50
2019-03-18T12:10:27.897Z,302.46
2019-03-18T12:11:26.853Z,302.37
2019-03-18T12:12:26.837Z,302.24
2019-03-18T12:13:26.830Z,302.09
2019-03-18T12:14:26.847Z,302.05
2019-03-18T12:15:26.809Z,301.88
2019-03-18T12:16:26.787Z,302.05
2019-03-18T12:17:28.518Z,301.85
2019-03-18T12:18:26.799Z,301.70
2019-03-18T12:19:26.758Z,301.91
2019-03-18T12:20:26.742Z,302.03
2019-03-18T12:21:26.725Z,301.93
2019-03-18T12:22:26.716Z,302.03
2019-03-18T12:23:26.728Z,301.77
2019-03-18T12:24:26.784Z,301.67
2019-03-18T12:25:26.689Z,301.70
2019-03-18T12:26:26.696Z,301.62
2019-03-18T12:27:26.714Z,301.55
2019-03-18T12:28:26.693Z,301.56